createdAt,value
2022-11-22T00:00:30.266Z,-1.89
2022-11-22T00:02:56.471Z,-1.97
2022-11-22T00:05:22.695Z,-1.95
2022-11-22T00:07:48.944Z,-1.92
2022-11-22T00:10:15.231Z,-1.90
2022-11-22T00:12:41.512Z,-1.96
2022-11-22T00:15:07.980Z,-1.97
2022-11-22T00:17:34.360Z,-2.02
2022-11-22T00:20:00.575Z,-2.12
2022-11-22T00:22:26.769Z,-2.13
2022-11-22T00:24:53.017Z,-2.11
2022-11-22T00:27:19.539Z,-2.13
2022-11-22T00:29:45.759Z,-2.13
2022-11-22T00:32:11.959Z,-2.15
2022-11-22T00:34:38.159Z,-2.09
2022-11-22T00:37:04.365Z,-2.09
2022-11-22T00:39:30.978Z,-2.05
2022-11-22T00:41:57.444Z,-2.04
2022-11-22T00:44:23.669Z,-1.96
2022-11-22T00:46:49.870Z,-1.96
2022-11-22T00:49:16.098Z,-1.92
2022-11-22T00:51:42.309Z,-1.92
2022-11-22T00:54:08.526Z,-1.81
2022-11-22T00:56:34.741Z,-1.81
2022-11-22T00:59:01.029Z,-1.81
2022-11-22T01:01:27.291Z,-1.71
2022-11-22T01:03:53.516Z,-1.70
2022-11-22T01:06:19.727Z,-1.68
2022-11-22T01:08:45.929Z,-1.73
2022-11-22T01:11:12.145Z,-1.68
2022-11-22T01:13:38.337Z,-1.69
2022-11-22T01:16:05.663Z,-1.65
2022-11-22T01:18:31.950Z,-1.75
2022-11-22T01:20:58.156Z,-1.73
2022-11-22T01:23:24.367Z,-1.75
2022-11-22T01:25:50.582Z,-1.71
2022-11-22T01:28:17.059Z,-1.72
2022-11-22T01:30:43.259Z,-1.70
2022-11-22T01:33:09.657Z,-1.71
2022-11-22T01:35:36.022Z,-1.80
2022-11-22T01:38:02.226Z,-1.79
2022-11-22T01:40:28.441Z,-1.79
2022-11-22T01:42:55.486Z,-1.78
2022-11-22T01:45:30.792Z,-1.82
2022-11-22T01:47:57.357Z,-1.85
2022-11-22T01:50:23.567Z,-1.80
2022-11-22T01:52:49.779Z,-1.81
2022-11-22T01:55:16.145Z,-1.80
2022-11-22T01:57:42.339Z,-1.80
2022-11-22T02:00:09.345Z,-1.78
2022-11-22T02:02:35.536Z,-1.70
2022-11-22T02:05:02.533Z,-1.68
2022-11-22T02:07:35.660Z,-1.78
2022-11-22T02:10:01.898Z,-1.68
2022-11-22T02:12:28.474Z,-1.67
2022-11-22T02:14:54.686Z,-1.56
2022-11-22T02:17:20.895Z,-1.66
2022-11-22T02:19:47.902Z,-1.65
2022-11-22T02:22:23.208Z,-1.66
2022-11-22T02:24:51.877Z,-1.76
2022-11-22T02:27:18.167Z,-1.79
2022-11-22T02:29:44.359Z,-1.75
2022-11-22T02:32:10.580Z,-1.70
2022-11-22T02:34:43.683Z,-1.64
2022-11-22T02:37:09.934Z,-1.73
2022-11-22T02:39:36.169Z,-1.72
2022-11-22T02:42:02.381Z,-1.70
2022-11-22T02:44:28.593Z,-1.76
2022-11-22T02:46:54.854Z,-1.71
2022-11-22T02:49:22.484Z,-1.73
2022-11-22T02:51:48.800Z,-1.77
2022-11-22T02:54:15.004Z,-1.69
2022-11-22T02:56:41.230Z,-1.63
2022-11-22T02:59:07.433Z,-1.61
2022-11-22T03:01:33.727Z,-1.59
2022-11-22T03:03:59.984Z,-1.58
2022-11-22T03:06:26.197Z,-1.53
2022-11-22T03:08:56.394Z,-1.54
2022-11-22T03:11:23.013Z,-1.52
2022-11-22T03:13:49.449Z,-1.47
2022-11-22T03:16:15.700Z,-1.42
2022-11-22T03:18:41.904Z,-1.46
2022-11-22T03:21:08.523Z,-1.43
2022-11-22T03:23:34.759Z,-1.39
2022-11-22T03:26:06.225Z,-1.45
2022-11-22T03:28:32.457Z,-1.41
2022-11-22T03:30:58.666Z,-1.41
2022-11-22T03:33:24.920Z,-1.39
2022-11-22T03:35:54.759Z,-1.40
2022-11-22T03:38:20.979Z,-1.38
2022-11-22T03:40:47.173Z,-1.38
2022-11-22T03:43:13.465Z,-1.37
2022-11-22T03:45:43.745Z,-1.39
2022-11-22T03:48:09.948Z,-1.40
2022-11-22T03:50:36.453Z,-1.37
2022-11-22T03:53:02.678Z,-1.40
2022-11-22T03:55:28.895Z,-1.40
2022-11-22T03:57:55.121Z,-1.35
2022-11-22T04:00:21.317Z,-1.38
2022-11-22T04:02:47.533Z,-1.36
2022-11-22T04:05:13.736Z,-1.33
2022-11-22T04:07:39.979Z,-1.34
2022-11-22T04:10:06.460Z,-1.36
2022-11-22T04:12:32.665Z,-1.34
2022-11-22T04:14:58.875Z,-1.38
2022-11-22T04:17:25.089Z,-1.40
2022-11-22T04:19:51.296Z,-1.37
2022-11-22T04:22:17.491Z,-1.39
2022-11-22T04:24:43.706Z,-1.36
2022-11-22T04:27:09.900Z,-1.34
2022-11-22T04:29:36.113Z,-1.35
2022-11-22T04:32:02.320Z,-1.34
2022-11-22T04:34:28.567Z,-1.33
2022-11-22T04:36:54.769Z,-1.31
2022-11-22T04:39:20.989Z,-1.31
2022-11-22T04:41:47.193Z,-1.28
2022-11-22T04:44:13.410Z,-1.31
2022-11-22T04:46:39.601Z,-1.31
2022-11-22T04:49:05.810Z,-1.30
2022-11-22T04:51:32.013Z,-1.30
2022-11-22T04:53:58.222Z,-1.32
2022-11-22T04:56:24.417Z,-1.29
2022-11-22T04:58:50.619Z,-1.28
2022-11-22T05:01:16.929Z,-1.30
2022-11-22T05:03:43.222Z,-1.34
2022-11-22T05:06:10.308Z,-1.35
2022-11-22T05:08:36.516Z,-1.33
2022-11-22T05:11:02.718Z,-1.28
2022-11-22T05:13:35.805Z,-1.32
2022-11-22T05:16:02.394Z,-1.28
2022-11-22T05:18:28.592Z,-1.27
2022-11-22T05:20:54.797Z,-1.28
2022-11-22T05:23:21.019Z,-1.29
2022-11-22T05:25:47.241Z,-1.29
2022-11-22T05:28:13.435Z,-1.29
2022-11-22T05:30:39.756Z,-1.27
2022-11-22T05:33:05.949Z,-1.31
2022-11-22T05:35:32.149Z,-1.29
2022-11-22T05:37:58.381Z,-1.30
2022-11-22T05:40:24.831Z,-1.29
2022-11-22T05:42:51.025Z,-1.29
2022-11-22T05:45:17.605Z,-1.31
2022-11-22T05:47:43.799Z,-1.31
2022-11-22T05:50:10.114Z,-1.31
2022-11-22T05:52:36.379Z,-1.32
2022-11-22T05:55:02.601Z,-1.33
2022-11-22T05:57:28.808Z,-1.32
2022-11-22T05:59:55.018Z,-1.33
2022-11-22T06:02:21.265Z,-1.33
2022-11-22T06:04:47.590Z,-1.34
2022-11-22T06:07:13.830Z,-1.32
2022-11-22T06:09:40.070Z,-1.29
2022-11-22T06:12:06.357Z,-1.33
2022-11-22T06:14:32.580Z,-1.32
2022-11-22T06:16:58.791Z,-1.33
2022-11-22T06:19:24.998Z,-1.31
2022-11-22T06:21:51.193Z,-1.26
2022-11-22T06:24:17.402Z,-1.27
2022-11-22T06:26:43.639Z,-1.21
2022-11-22T06:29:09.854Z,-1.20
2022-11-22T06:31:36.063Z,-1.20
2022-11-22T06:34:02.273Z,-1.16
2022-11-22T06:36:32.149Z,-1.16
2022-11-22T06:38:58.384Z,-1.17
2022-11-22T06:41:25.357Z,-1.17
2022-11-22T06:43:51.939Z,-1.16
2022-11-22T06:46:18.636Z,-1.15
2022-11-22T06:48:44.832Z,-1.15
2022-11-22T06:51:15.255Z,-1.15
2022-11-22T06:53:49.382Z,-1.09
2022-11-22T06:56:27.602Z,-1.03
2022-11-22T06:58:53.976Z,-1.08
2022-11-22T07:01:21.015Z,-1.07
2022-11-22T07:03:47.269Z,-1.06
2022-11-22T07:06:13.746Z,-1.03
2022-11-22T07:08:39.998Z,-1.02
2022-11-22T07:11:06.933Z,-0.98
2022-11-22T07:13:33.198Z,-0.93
2022-11-22T07:15:59.856Z,-0.94
2022-11-22T07:18:26.136Z,-0.93
2022-11-22T07:20:52.351Z,-0.94
2022-11-22T07:23:18.586Z,-0.94
2022-11-22T07:25:45.210Z,-0.94
2022-11-22T07:28:11.665Z,-0.97
2022-11-22T07:30:42.657Z,-0.93
2022-11-22T07:33:10.275Z,-0.93
2022-11-22T07:35:36.637Z,-0.92
2022-11-22T07:38:03.025Z,-0.85
2022-11-22T07:40:29.235Z,-0.86
2022-11-22T07:42:58.401Z,-0.85
2022-11-22T07:45:25.133Z,-0.85
2022-11-22T07:47:51.337Z,-0.83
2022-11-22T07:50:17.545Z,-0.84
2022-11-22T07:52:43.767Z,-0.84
2022-11-22T07:55:14.077Z,-0.82
2022-11-22T07:57:40.656Z,-0.85
2022-11-22T08:00:07.095Z,-0.89
2022-11-22T08:02:33.310Z,-0.86
2022-11-22T08:04:59.522Z,-0.81
2022-11-22T08:07:25.796Z,-0.80
2022-11-22T08:09:52.067Z,-0.80
2022-11-22T08:12:18.271Z,-0.74
2022-11-22T08:14:44.482Z,-0.70
2022-11-22T08:17:10.701Z,-0.68
2022-11-22T08:19:36.899Z,-0.65
2022-11-22T08:22:03.107Z,-0.62
2022-11-22T08:24:29.315Z,-0.61
2022-11-22T08:26:55.526Z,-0.57
2022-11-22T08:29:21.732Z,-0.54
2022-11-22T08:31:47.940Z,-0.55
2022-11-22T08:34:14.133Z,-0.48
2022-11-22T08:36:40.344Z,-0.45
2022-11-22T08:39:06.552Z,-0.42
2022-11-22T08:41:32.766Z,-0.43
2022-11-22T08:43:58.976Z,-0.40
2022-11-22T08:46:25.186Z,-0.39
2022-11-22T08:48:54.351Z,-0.36
2022-11-22T08:51:20.566Z,-0.30
2022-11-22T08:53:46.760Z,-0.29
2022-11-22T08:56:13.706Z,-0.24
2022-11-22T08:58:40.034Z,-0.12
2022-11-22T09:01:07.212Z,-0.21
2022-11-22T09:03:33.916Z,-0.11
2022-11-22T09:08:55.408Z,-0.05
2022-11-22T09:11:29.397Z,0.07
2022-11-22T09:13:55.588Z,0.13
2022-11-22T09:16:21.792Z,0.18
2022-11-22T09:18:47.988Z,0.34
2022-11-22T09:21:17.680Z,0.40
2022-11-22T09:23:44.236Z,0.43
2022-11-22T09:26:11.428Z,0.23
2022-11-22T09:28:37.685Z,0.34
2022-11-22T09:31:04.818Z,0.30
2022-11-22T09:33:31.200Z,0.28
2022-11-22T09:36:00.740Z,0.20
2022-11-22T09:38:27.015Z,0.31
2022-11-22T09:40:56.939Z,0.27
2022-11-22T09:43:42.065Z,0.34
2022-11-22T09:46:23.327Z,0.35
2022-11-22T09:49:06.121Z,0.34
2022-11-22T09:51:47.585Z,0.35
2022-11-22T09:54:15.424Z,0.45
2022-11-22T09:56:41.640Z,0.38
2022-11-22T09:59:07.797Z,0.40
2022-11-22T10:01:35.703Z,0.47
2022-11-22T10:04:11.010Z,0.48
2022-11-22T10:06:38.165Z,0.36
2022-11-22T10:09:22.490Z,0.32
2022-11-22T10:11:54.524Z,0.38
2022-11-22T10:14:36.051Z,0.32
2022-11-22T10:17:07.681Z,0.24
2022-11-22T10:19:41.912Z,0.45
2022-11-22T10:22:11.794Z,0.40
2022-11-22T10:24:38.004Z,0.49
2022-11-22T10:27:04.243Z,0.55
2022-11-22T10:29:41.672Z,0.65
2022-11-22T10:32:10.669Z,0.48
2022-11-22T10:34:36.826Z,0.48
2022-11-22T10:37:21.660Z,0.50
2022-11-22T10:40:02.908Z,0.65
2022-11-22T10:42:32.762Z,0.55
2022-11-22T10:45:07.744Z,0.56
2022-11-22T10:47:38.603Z,0.56
2022-11-22T10:50:25.076Z,0.68
2022-11-22T10:52:54.619Z,0.62
2022-11-22T10:55:23.215Z,0.73
2022-11-22T10:57:49.371Z,0.93
2022-11-22T11:00:22.210Z,0.91
2022-11-22T11:02:52.722Z,1.03
2022-11-22T11:05:19.500Z,1.21
2022-11-22T11:07:49.876Z,1.18
2022-11-22T11:10:26.271Z,1.14
2022-11-22T11:12:56.097Z,1.13
2022-11-22T11:15:23.168Z,1.30
2022-11-22T11:17:51.367Z,1.23
2022-11-22T11:20:25.682Z,1.25
2022-11-22T11:23:13.233Z,1.37
2022-11-22T11:25:38.791Z,1.23
2022-11-22T11:28:18.483Z,1.26
2022-11-22T11:30:46.260Z,1.22
2022-11-22T11:33:19.605Z,1.13
2022-11-22T11:35:45.805Z,1.23
2022-11-22T11:38:44.654Z,1.28
2022-11-22T11:41:29.468Z,1.25
2022-11-22T11:43:56.560Z,1.22
2022-11-22T11:46:23.538Z,1.16
2022-11-22T11:48:50.401Z,1.18
2022-11-22T11:51:17.497Z,1.22
2022-11-22T11:53:49.997Z,1.27
2022-11-22T11:56:28.384Z,1.31
2022-11-22T11:58:55.027Z,1.36
2022-11-22T12:01:21.256Z,1.44
2022-11-22T12:03:51.692Z,1.44
2022-11-22T12:06:17.886Z,1.47
2022-11-22T12:08:44.111Z,1.35
2022-11-22T12:11:11.939Z,1.32
2022-11-22T12:14:04.745Z,1.41
2022-11-22T12:16:30.528Z,1.43
2022-11-22T12:19:00.052Z,1.37
2022-11-22T12:21:39.438Z,1.40
2022-11-22T12:24:43.147Z,1.47
2022-11-22T12:27:04.025Z,1.36
2022-11-22T12:29:30.370Z,1.38
2022-11-22T12:32:05.111Z,1.36
2022-11-22T12:34:36.585Z,1.45
2022-11-22T12:37:05.750Z,1.42
2022-11-22T12:39:32.733Z,1.40
2022-11-22T12:42:25.322Z,1.53
2022-11-22T12:45:01.999Z,1.50
2022-11-22T12:47:32.344Z,1.45
2022-11-22T12:50:08.821Z,1.38
2022-11-22T12:52:38.906Z,1.38
2022-11-22T12:55:15.206Z,1.41
2022-11-22T12:57:46.044Z,1.43
2022-11-22T13:00:21.970Z,1.47
2022-11-22T13:02:58.730Z,1.44
2022-11-22T13:05:26.726Z,1.43
2022-11-22T13:07:52.976Z,1.37
2022-11-22T13:10:21.935Z,1.39
2022-11-22T13:12:48.173Z,1.35
2022-11-22T13:15:25.382Z,1.37
2022-11-22T13:17:51.593Z,1.37
2022-11-22T13:20:18.229Z,1.33
2022-11-22T13:22:44.383Z,1.35
2022-11-22T13:25:29.237Z,1.35
2022-11-22T13:27:55.464Z,1.37
2022-11-22T13:30:22.631Z,1.34
2022-11-22T13:32:52.446Z,1.22
2022-11-22T13:35:29.294Z,1.23
2022-11-22T13:37:56.366Z,1.31
2022-11-22T13:40:23.920Z,1.34
2022-11-22T13:43:13.761Z,1.27
2022-11-22T13:45:51.639Z,1.19
2022-11-22T13:48:36.625Z,1.18
2022-11-22T13:51:02.824Z,1.17
2022-11-22T13:53:30.014Z,1.25
2022-11-22T13:55:57.015Z,1.19
2022-11-22T13:58:26.265Z,1.21
2022-11-22T14:00:55.588Z,1.22
2022-11-22T14:03:34.043Z,1.16
2022-11-22T14:06:00.257Z,1.18
2022-11-22T14:08:27.470Z,1.23
2022-11-22T14:10:53.644Z,1.15
2022-11-22T14:13:19.792Z,1.11
2022-11-22T14:15:47.941Z,1.15
2022-11-22T14:18:33.010Z,1.15
2022-11-22T14:21:07.045Z,1.16
2022-11-22T14:23:51.915Z,1.13
2022-11-22T14:26:20.705Z,1.08
2022-11-22T14:29:05.852Z,1.08
2022-11-22T14:31:34.077Z,1.02
2022-11-22T14:34:16.265Z,1.06
2022-11-22T14:36:42.471Z,1.04
2022-11-22T14:39:33.445Z,1.14
2022-11-22T14:41:59.916Z,1.05
2022-11-22T14:44:27.002Z,1.12
2022-11-22T14:46:55.595Z,1.05
2022-11-22T14:49:21.788Z,1.02
2022-11-22T14:51:51.363Z,0.99
2022-11-22T14:54:37.815Z,1.01
2022-11-22T14:57:04.777Z,0.92
2022-11-22T14:59:39.496Z,0.91
2022-11-22T15:02:13.485Z,0.92
2022-11-22T15:09:10.828Z,1.02
2022-11-22T15:09:21.466Z,0.96
2022-11-22T15:10:27.628Z,0.93
2022-11-22T15:13:12.781Z,0.90
2022-11-22T15:58:01.097Z,0.81
2022-11-22T16:00:27.729Z,0.85
2022-11-22T16:02:57.195Z,0.77
2022-11-22T16:06:05.401Z,0.78
2022-11-22T16:08:10.886Z,0.77
2022-11-22T16:10:37.779Z,0.74
2022-11-22T16:13:30.432Z,0.76
2022-11-22T16:16:11.582Z,0.72
2022-11-22T16:18:40.966Z,0.75
2022-11-22T16:21:10.190Z,0.80
2022-11-22T16:23:36.682Z,0.72
2022-11-22T16:26:18.092Z,0.73
2022-11-22T16:28:44.435Z,0.73
2022-11-22T16:31:30.876Z,0.73
2022-11-22T16:33:57.225Z,0.77
2022-11-22T16:36:24.231Z,0.76
2022-11-22T16:38:50.442Z,0.77
2022-11-22T16:41:19.647Z,0.82
2022-11-22T16:43:45.858Z,0.75
2022-11-22T16:46:15.071Z,0.76
2022-11-22T16:48:41.404Z,0.77
2022-11-22T16:51:11.109Z,0.77
2022-11-22T16:53:38.008Z,0.76
2022-11-22T16:56:04.241Z,0.82
2022-11-22T16:58:30.446Z,0.80
2022-11-22T17:00:56.692Z,0.78
2022-11-22T17:03:23.304Z,0.77
2022-11-22T17:05:49.504Z,0.81
2022-11-22T17:08:16.378Z,0.82
2022-11-22T17:10:43.658Z,0.80
2022-11-22T17:13:12.945Z,0.81
2022-11-22T17:15:39.171Z,0.84
2022-11-22T17:18:05.380Z,0.83
2022-11-22T17:20:31.577Z,0.81
2022-11-22T17:22:57.793Z,0.83
2022-11-22T17:25:23.995Z,0.84
2022-11-22T17:27:53.940Z,0.88
2022-11-22T17:30:20.465Z,0.83
2022-11-22T17:32:46.674Z,0.84
2022-11-22T17:35:12.910Z,0.86
2022-11-22T17:37:39.120Z,0.84
2022-11-22T17:40:05.575Z,0.82
2022-11-22T17:42:34.538Z,0.83
2022-11-22T17:45:04.498Z,0.82
2022-11-22T17:47:30.707Z,0.84
2022-11-22T17:49:57.188Z,0.81
2022-11-22T17:52:23.445Z,0.81
2022-11-22T17:54:49.653Z,0.84
2022-11-22T17:57:15.870Z,0.80
2022-11-22T17:59:42.101Z,0.82
2022-11-22T18:02:08.906Z,0.90
2022-11-22T18:04:35.121Z,0.87
2022-11-22T18:07:01.333Z,0.89
2022-11-22T18:09:27.548Z,0.95
2022-11-22T18:11:53.754Z,0.91
2022-11-22T18:14:19.978Z,0.92
2022-11-22T18:16:46.177Z,0.94
2022-11-22T18:19:12.403Z,0.90
2022-11-22T18:21:38.608Z,0.89
2022-11-22T18:24:04.819Z,0.88
2022-11-22T18:26:39.374Z,0.89
2022-11-22T18:31:53.413Z,0.90
2022-11-22T18:34:20.276Z,0.94
2022-11-22T18:36:56.424Z,0.88
2022-11-22T18:39:25.540Z,0.87
2022-11-22T18:41:51.751Z,0.89
2022-11-22T18:44:18.017Z,0.88
2022-11-22T18:46:44.232Z,0.90
2022-11-22T18:49:10.449Z,0.94
2022-11-22T18:51:36.651Z,0.97
2022-11-22T18:54:02.879Z,0.99
2022-11-22T18:56:29.099Z,0.95
2022-11-22T18:58:55.301Z,1.02
2022-11-22T19:01:22.145Z,0.98
2022-11-22T19:03:48.423Z,0.95
2022-11-22T19:06:15.239Z,0.97
2022-11-22T19:08:41.509Z,0.96
2022-11-22T19:11:07.754Z,0.98
2022-11-22T19:13:34.396Z,0.97
2022-11-22T19:16:06.739Z,0.98
2022-11-22T19:18:35.555Z,1.01
2022-11-22T19:21:06.577Z,1.05
2022-11-22T19:23:32.945Z,1.05
2022-11-22T19:26:01.376Z,1.00
2022-11-22T19:28:27.793Z,0.98
2022-11-22T19:30:54.160Z,0.96
2022-11-22T19:33:20.383Z,0.99
2022-11-22T19:35:56.418Z,1.00
2022-11-22T19:38:22.614Z,1.02
2022-11-22T19:40:48.815Z,1.04
2022-11-22T19:43:16.557Z,1.02
2022-11-22T19:45:42.948Z,1.03
2022-11-22T19:48:09.145Z,1.02
2022-11-22T19:50:37.646Z,0.99
2022-11-22T19:53:03.992Z,1.04
2022-11-22T19:55:30.214Z,1.04
2022-11-22T19:57:56.407Z,1.01
2022-11-22T20:00:22.609Z,1.01
2022-11-22T20:02:48.811Z,0.99
2022-11-22T20:05:15.041Z,1.03
2022-11-22T20:07:41.280Z,1.04
2022-11-22T20:10:07.576Z,1.01
2022-11-22T20:12:33.791Z,1.11
2022-11-22T20:14:59.999Z,1.07
2022-11-22T20:17:26.211Z,1.12
2022-11-22T20:19:52.421Z,1.06
2022-11-22T20:22:18.640Z,1.02
2022-11-22T20:24:44.853Z,1.06
2022-11-22T20:27:11.388Z,1.03
2022-11-22T20:29:37.593Z,1.08
2022-11-22T20:32:03.809Z,1.05
2022-11-22T20:34:30.331Z,1.04
2022-11-22T20:36:56.739Z,1.04
2022-11-22T20:39:22.940Z,1.08
2022-11-22T20:41:51.486Z,1.08
2022-11-22T20:44:27.640Z,1.13
2022-11-22T20:46:53.845Z,1.10
2022-11-22T20:49:20.035Z,1.13
2022-11-22T20:51:46.246Z,1.11
2022-11-22T20:54:12.444Z,1.18
2022-11-22T20:56:38.652Z,1.13
2022-11-22T20:59:04.860Z,1.17
2022-11-22T21:01:31.145Z,1.13
2022-11-22T21:03:58.510Z,1.15
2022-11-22T21:06:24.730Z,1.17
2022-11-22T21:08:50.933Z,1.14
2022-11-22T21:11:17.099Z,1.13
2022-11-22T21:13:43.339Z,1.16
2022-11-22T21:16:22.334Z,1.17
2022-11-22T21:18:50.684Z,1.17
2022-11-22T21:21:16.903Z,1.18
2022-11-22T21:23:43.172Z,1.12
2022-11-22T21:26:09.381Z,1.17
2022-11-22T21:28:36.014Z,1.15
2022-11-22T21:31:02.242Z,1.14
2022-11-22T21:33:31.890Z,1.14
2022-11-22T21:35:58.334Z,1.19
2022-11-22T21:38:30.858Z,1.20
2022-11-22T21:41:16.899Z,1.24
2022-11-22T21:43:50.025Z,1.21
2022-11-22T21:46:16.700Z,1.18
2022-11-22T21:48:42.908Z,1.24
2022-11-22T21:51:09.116Z,1.22
2022-11-22T21:53:35.328Z,1.25
2022-11-22T21:56:01.534Z,1.25
2022-11-22T21:58:27.767Z,1.32
2022-11-22T22:00:54.190Z,1.27
2022-11-22T22:03:20.417Z,1.22
2022-11-22T22:05:50.247Z,1.25
2022-11-22T22:08:16.494Z,1.26
2022-11-22T22:10:42.809Z,1.27
2022-11-22T22:13:09.008Z,1.28
2022-11-22T22:15:35.211Z,1.27
2022-11-22T22:18:01.444Z,1.30
2022-11-22T22:20:27.661Z,1.27
2022-11-22T22:22:53.870Z,1.28
2022-11-22T22:25:20.075Z,1.26
2022-11-22T22:27:46.330Z,1.33
2022-11-22T22:30:12.789Z,1.29
2022-11-22T22:32:39.001Z,1.30
2022-11-22T22:35:05.373Z,1.26
2022-11-22T22:37:31.588Z,1.28
2022-11-22T22:39:57.800Z,1.29
2022-11-22T22:42:24.008Z,1.33
2022-11-22T22:44:50.199Z,1.31
2022-11-22T22:47:16.409Z,1.30
2022-11-22T22:49:42.622Z,1.32
2022-11-22T22:52:08.829Z,1.36
2022-11-22T22:54:35.035Z,1.34
2022-11-22T22:57:01.648Z,1.39
2022-11-22T22:59:27.842Z,1.42
2022-11-22T23:01:54.051Z,1.40
2022-11-22T23:04:20.270Z,1.34
2022-11-22T23:06:46.493Z,1.33
2022-11-22T23:09:12.688Z,1.37
2022-11-22T23:11:38.889Z,1.33
2022-11-22T23:14:05.140Z,1.31
2022-11-22T23:16:31.346Z,1.30
2022-11-22T23:18:57.548Z,1.32
2022-11-22T23:21:23.740Z,1.28
2022-11-22T23:23:52.457Z,1.40
2022-11-22T23:26:18.654Z,1.39
2022-11-22T23:28:44.856Z,1.36
2022-11-22T23:31:11.713Z,1.40
2022-11-22T23:33:37.977Z,1.45
2022-11-22T23:36:08.024Z,1.45
2022-11-22T23:38:34.233Z,1.43
2022-11-22T23:41:00.560Z,1.37
2022-11-22T23:43:27.088Z,1.37
2022-11-22T23:45:53.292Z,1.36
2022-11-22T23:48:19.497Z,1.37
2022-11-22T23:50:45.697Z,1.39
2022-11-22T23:53:11.915Z,1.35
2022-11-22T23:55:38.162Z,1.36
2022-11-22T23:58:04.377Z,1.36
